createdAt,value
2022-09-12T00:00:01.857Z,32.80
2022-09-12T00:01:01.877Z,33.30
2022-09-12T00:02:01.818Z,33.10
2022-09-12T00:03:01.710Z,30.00
2022-09-12T00:04:01.660Z,30.60
2022-09-12T00:05:01.615Z,32.40
2022-09-12T00:06:01.573Z,34.10
2022-09-12T00:08:01.484Z,32.40
2022-09-12T00:09:01.435Z,31.00
2022-09-12T00:10:01.392Z,34.30
2022-09-12T00:11:01.354Z,31.10
2022-09-12T00:12:01.307Z,30.70
2022-09-12T00:13:01.256Z,31.90
2022-09-12T00:14:01.217Z,32.00
2022-09-12T00:15:01.168Z,35.10
2022-09-12T00:16:01.145Z,36.00
2022-09-12T00:17:01.081Z,34.50
2022-09-12T00:18:01.033Z,32.50
2022-09-12T00:19:00.991Z,31.70
2022-09-12T00:20:00.944Z,33.00
2022-09-12T00:21:00.900Z,36.00
2022-09-12T00:22:00.854Z,30.60
2022-09-12T00:23:00.817Z,35.30
2022-09-12T00:24:00.772Z,34.80
2022-09-12T00:25:00.725Z,34.30
2022-09-12T00:26:00.676Z,36.30
2022-09-12T00:27:00.634Z,35.70
2022-09-12T00:28:00.586Z,34.30
2022-09-12T00:29:00.544Z,35.20
2022-09-12T00:30:00.497Z,34.80
2022-09-12T00:31:00.457Z,35.40
2022-09-12T00:32:00.482Z,36.10
2022-09-12T00:33:00.366Z,40.60
2022-09-12T00:34:00.317Z,34.70
2022-09-12T00:35:00.276Z,35.90
2022-09-12T00:36:00.235Z,37.50
2022-09-12T00:37:00.187Z,37.50
2022-09-12T00:38:00.145Z,36.40
2022-09-12T00:39:00.108Z,38.50
2022-09-12T00:40:00.094Z,39.10
2022-09-12T00:41:00.006Z,40.80
2022-09-12T00:41:59.961Z,43.20
2022-09-12T00:42:59.920Z,41.90
2022-09-12T00:43:59.882Z,40.60
2022-09-12T00:44:59.826Z,35.70
2022-09-12T00:45:59.811Z,36.60
2022-09-12T00:46:59.747Z,37.20
2022-09-12T00:47:59.710Z,36.00
2022-09-12T00:48:59.654Z,35.40
2022-09-12T00:49:59.605Z,34.00
2022-09-12T00:50:59.560Z,33.40
2022-09-12T00:51:59.514Z,35.20
2022-09-12T00:52:59.471Z,32.40
2022-09-12T00:53:59.426Z,35.50
2022-09-12T00:54:59.382Z,35.30
2022-09-12T00:55:59.337Z,32.40
2022-09-12T00:56:59.292Z,33.20
2022-09-12T00:57:59.249Z,34.30
2022-09-12T00:58:59.203Z,31.60
2022-09-12T00:59:59.156Z,33.60
2022-09-12T01:00:59.253Z,30.80
2022-09-12T01:01:59.210Z,28.20
2022-09-12T01:02:59.023Z,29.80
2022-09-12T01:03:58.996Z,28.90
2022-09-12T01:04:58.932Z,33.00
2022-09-12T01:05:58.891Z,33.40
2022-09-12T01:06:58.845Z,33.10
2022-09-12T01:07:58.799Z,33.10
2022-09-12T01:08:58.755Z,32.80
2022-09-12T01:09:58.711Z,33.20
2022-09-12T01:10:58.666Z,30.40
2022-09-12T01:11:58.618Z,31.20
2022-09-12T01:12:58.578Z,31.40
2022-09-12T01:13:58.529Z,32.50
2022-09-12T01:14:58.487Z,33.30
2022-09-12T01:15:58.442Z,34.30
2022-09-12T01:16:58.396Z,31.30
2022-09-12T01:17:58.355Z,29.00
2022-09-12T01:18:58.308Z,29.70
2022-09-12T01:19:58.280Z,29.90
2022-09-12T01:20:58.216Z,36.20
2022-09-12T01:21:58.171Z,32.80
2022-09-12T01:22:58.128Z,32.70
2022-09-12T01:23:58.081Z,32.50
2022-09-12T01:24:58.037Z,29.30
2022-09-12T01:26:57.948Z,32.10
2022-09-12T01:27:57.904Z,31.80
2022-09-12T01:28:57.856Z,29.30
2022-09-12T01:29:57.822Z,30.20
2022-09-12T01:30:57.777Z,28.80
2022-09-12T01:31:57.765Z,30.30
2022-09-12T01:32:57.680Z,30.90
2022-09-12T01:36:24.253Z,30.80
2022-09-12T01:37:24.184Z,36.70
2022-09-12T01:38:24.137Z,30.70
2022-09-12T01:39:24.097Z,35.50
2022-09-12T01:40:24.053Z,31.60
2022-09-12T01:41:24.005Z,35.00
2022-09-12T01:42:23.959Z,35.10
2022-09-12T01:43:23.917Z,29.90
2022-09-12T01:44:23.869Z,34.30
2022-09-12T01:45:23.868Z,31.50
2022-09-12T01:46:23.780Z,29.10
2022-09-12T01:47:23.735Z,32.90
2022-09-12T01:48:23.689Z,34.30
2022-09-12T01:49:23.652Z,35.10
2022-09-12T01:50:23.599Z,32.90
2022-09-12T01:51:23.560Z,33.80
2022-09-12T01:52:23.529Z,31.00
2022-09-12T01:53:23.467Z,31.70
2022-09-12T01:54:23.420Z,32.30
2022-09-12T01:55:23.376Z,33.80
2022-09-12T01:56:23.329Z,37.30
2022-09-12T01:57:23.385Z,32.10
2022-09-12T01:58:23.242Z,31.80
2022-09-12T01:59:23.197Z,34.30
2022-09-12T02:00:23.155Z,32.40
2022-09-12T02:01:23.140Z,30.30
2022-09-12T02:02:23.121Z,36.60
2022-09-12T02:03:23.017Z,34.80
2022-09-12T02:04:22.977Z,37.70
2022-09-12T02:05:22.931Z,34.80
2022-09-12T02:06:22.880Z,32.80
2022-09-12T02:07:22.837Z,33.60
2022-09-12T02:08:22.810Z,32.30
2022-09-12T02:09:22.746Z,32.60
2022-09-12T02:10:22.699Z,29.70
2022-09-12T02:11:22.658Z,36.40
2022-09-12T02:12:22.609Z,31.20
2022-09-12T02:13:22.568Z,33.50
2022-09-12T02:14:22.527Z,31.10
2022-09-12T02:15:22.475Z,32.70
2022-09-12T02:16:22.500Z,30.10
2022-09-12T02:17:22.391Z,30.30
2022-09-12T02:18:22.340Z,32.00
2022-09-12T02:19:22.294Z,36.50
2022-09-12T02:20:46.403Z,35.10
2022-09-12T02:21:22.205Z,31.50
2022-09-12T02:22:22.158Z,29.20
2022-09-12T02:23:22.115Z,34.80
2022-09-12T02:24:22.093Z,29.10
2022-09-12T02:25:22.026Z,31.60
2022-09-12T02:26:21.978Z,30.70
2022-09-12T02:27:21.939Z,27.90
2022-09-12T02:28:21.887Z,31.50
2022-09-12T02:29:21.844Z,29.50
2022-09-12T02:30:21.831Z,33.40
2022-09-12T02:31:21.758Z,29.60
2022-09-12T02:32:21.710Z,28.90
2022-09-12T02:33:21.665Z,34.60
2022-09-12T02:34:21.620Z,30.20
2022-09-12T02:35:21.576Z,31.00
2022-09-12T02:36:21.528Z,33.20
2022-09-12T02:37:21.485Z,34.80
2022-09-12T02:38:21.438Z,32.90
2022-09-12T02:39:21.393Z,31.70
2022-09-12T02:40:21.402Z,37.90
2022-09-12T02:41:21.307Z,35.20
2022-09-12T02:42:21.261Z,33.50
2022-09-12T02:43:21.215Z,33.40
2022-09-12T02:44:21.169Z,36.10
2022-09-12T02:45:21.126Z,37.00
2022-09-12T02:46:21.083Z,34.30
2022-09-12T02:47:21.033Z,31.90
2022-09-12T02:48:20.986Z,31.40
2022-09-12T02:49:20.942Z,33.60
2022-09-12T02:50:20.896Z,32.80
2022-09-12T02:51:23.646Z,31.50
2022-09-12T02:52:20.813Z,36.00
2022-09-12T02:53:20.761Z,31.50
2022-09-12T02:54:20.723Z,31.30
2022-09-12T02:55:20.672Z,36.10
2022-09-12T02:56:20.653Z,33.70
2022-09-12T02:57:22.853Z,33.30
2022-09-12T02:58:20.539Z,33.90
2022-09-12T02:59:20.498Z,34.40
2022-09-12T03:00:20.445Z,35.90
2022-09-12T03:01:20.426Z,35.80
2022-09-12T03:02:20.389Z,30.30
2022-09-12T03:04:20.271Z,33.00
2022-09-12T03:05:20.218Z,36.00
2022-09-12T03:06:20.176Z,34.70
2022-09-12T03:07:20.131Z,34.40
2022-09-12T03:08:20.088Z,34.20
2022-09-12T03:09:20.040Z,35.20
2022-09-12T03:10:19.994Z,30.50
2022-09-12T03:11:19.949Z,31.90
2022-09-12T03:12:19.923Z,37.70
2022-09-12T03:13:19.856Z,32.50
2022-09-12T03:14:19.814Z,34.30
2022-09-12T03:15:19.771Z,34.20
2022-09-12T03:16:19.787Z,34.40
2022-09-12T03:17:19.678Z,33.90
2022-09-12T03:18:19.635Z,36.90
2022-09-12T03:19:19.586Z,34.40
2022-09-12T03:20:19.542Z,30.30
2022-09-12T03:21:19.498Z,36.50
2022-09-12T03:22:19.452Z,35.70
2022-09-12T03:23:19.406Z,37.20
2022-09-12T03:24:19.363Z,38.40
2022-09-12T03:25:19.316Z,35.50
2022-09-12T03:26:19.272Z,36.40
2022-09-12T03:27:19.225Z,32.80
2022-09-12T03:28:19.200Z,32.80
2022-09-12T03:29:19.135Z,33.20
2022-09-12T03:30:19.159Z,32.90
2022-09-12T03:31:19.048Z,35.40
2022-09-12T03:32:19.003Z,34.40
2022-09-12T03:33:18.954Z,37.80
2022-09-12T03:34:18.910Z,37.00
2022-09-12T03:35:22.864Z,36.40
2022-09-12T03:36:18.820Z,34.00
2022-09-12T03:37:18.772Z,39.10
2022-09-12T03:38:18.729Z,32.40
2022-09-12T03:39:18.684Z,33.30
2022-09-12T03:40:18.641Z,33.40
2022-09-12T03:41:18.592Z,31.80
2022-09-12T03:42:18.559Z,35.70
2022-09-12T03:43:18.502Z,31.60
2022-09-12T03:44:18.478Z,32.20
2022-09-12T03:45:18.409Z,33.00
2022-09-12T03:46:18.367Z,35.00
2022-09-12T03:47:18.322Z,32.10
2022-09-12T03:48:18.277Z,32.20
2022-09-12T03:49:18.230Z,35.90
2022-09-12T03:50:18.188Z,36.80
2022-09-12T03:51:18.141Z,32.20
2022-09-12T03:52:18.100Z,37.80
2022-09-12T03:53:18.047Z,34.90
2022-09-12T03:54:18.008Z,33.20
2022-09-12T03:55:17.959Z,32.90
2022-09-12T03:56:17.918Z,32.40
2022-09-12T03:57:17.870Z,37.10
2022-09-12T03:58:17.826Z,32.60
2022-09-12T03:59:17.778Z,37.90
2022-09-12T04:00:19.827Z,35.20
2022-09-12T04:01:17.714Z,35.70
2022-09-12T04:02:17.709Z,34.30
2022-09-12T04:03:17.596Z,34.70
2022-09-12T04:04:17.553Z,31.50
2022-09-12T04:05:17.507Z,35.00
2022-09-12T04:06:17.461Z,31.70
2022-09-12T04:07:17.416Z,31.00
2022-09-12T04:08:17.373Z,29.70
2022-09-12T04:09:17.322Z,30.70
2022-09-12T04:10:17.281Z,30.80
2022-09-12T04:11:17.234Z,33.00
2022-09-12T04:12:17.191Z,32.90
2022-09-12T04:13:17.141Z,36.00
2022-09-12T04:14:17.098Z,34.00
2022-09-12T04:15:17.052Z,34.50
2022-09-12T04:16:17.082Z,33.00
2022-09-12T04:17:16.963Z,35.20
2022-09-12T04:18:16.918Z,32.60
2022-09-12T04:19:16.874Z,31.90
2022-09-12T04:20:16.831Z,29.70
2022-09-12T04:21:16.781Z,34.50
2022-09-12T04:22:16.739Z,33.00
2022-09-12T04:23:16.691Z,33.70
2022-09-12T04:24:16.644Z,33.70
2022-09-12T04:25:16.599Z,33.60
2022-09-12T04:26:16.556Z,36.70
2022-09-12T04:27:16.510Z,32.70
2022-09-12T04:28:16.466Z,30.90
2022-09-12T04:29:16.416Z,30.60
2022-09-12T04:30:16.373Z,30.90
2022-09-12T04:31:16.326Z,30.80
2022-09-12T04:32:16.300Z,31.80
2022-09-12T04:33:16.237Z,34.50
2022-09-12T04:34:16.192Z,33.30
2022-09-12T04:35:16.147Z,30.00
2022-09-12T04:36:16.103Z,30.70
2022-09-12T04:37:16.054Z,30.10
2022-09-12T04:38:16.009Z,29.40
2022-09-12T04:39:15.965Z,28.70
2022-09-12T04:40:15.950Z,34.40
2022-09-12T04:41:15.873Z,28.40
2022-09-12T04:42:15.828Z,33.50
2022-09-12T04:43:15.781Z,31.80
2022-09-12T04:44:15.739Z,32.70
2022-09-12T04:45:15.692Z,33.00
2022-09-12T04:46:15.647Z,31.20
2022-09-12T04:47:15.601Z,36.60
2022-09-12T04:48:15.572Z,36.50
2022-09-12T04:49:15.509Z,36.00
2022-09-12T04:50:15.465Z,35.10
2022-09-12T04:51:15.419Z,37.20
2022-09-12T04:52:15.378Z,32.20
2022-09-12T04:53:15.331Z,36.50
2022-09-12T04:56:41.886Z,33.60
2022-09-12T04:57:41.834Z,32.60
2022-09-12T04:58:41.790Z,31.90
2022-09-12T04:59:41.742Z,32.60
2022-09-12T05:00:41.694Z,33.80
2022-09-12T05:01:41.721Z,30.00
2022-09-12T05:02:41.611Z,37.60
2022-09-12T05:03:41.588Z,32.70
2022-09-12T05:04:41.519Z,33.10
2022-09-12T05:05:41.475Z,32.20
2022-09-12T05:06:41.433Z,31.40
2022-09-12T05:07:41.379Z,38.00
2022-09-12T05:08:41.332Z,32.10
2022-09-12T05:09:41.288Z,31.60
2022-09-12T05:10:41.241Z,33.30
2022-09-12T05:12:03.360Z,32.40
2022-09-12T05:12:41.149Z,34.60
2022-09-12T05:13:41.111Z,33.30
2022-09-12T05:14:41.060Z,32.00
2022-09-12T05:15:41.016Z,37.60
2022-09-12T05:16:41.008Z,37.40
2022-09-12T05:17:40.928Z,38.10
2022-09-12T05:18:40.880Z,31.10
2022-09-12T05:19:40.852Z,35.20
2022-09-12T05:20:40.786Z,33.80
2022-09-12T05:21:40.747Z,33.00
2022-09-12T05:22:40.702Z,33.90
2022-09-12T05:23:40.651Z,32.20
2022-09-12T05:24:40.612Z,35.80
2022-09-12T05:25:40.562Z,39.00
2022-09-12T05:26:40.517Z,32.30
2022-09-12T05:27:40.471Z,34.00
2022-09-12T05:28:40.426Z,37.40
2022-09-12T05:29:40.382Z,37.20
2022-09-12T05:30:40.366Z,37.70
2022-09-12T05:31:40.289Z,40.00
2022-09-12T05:32:40.260Z,38.00
2022-09-12T05:33:40.202Z,39.00
2022-09-12T05:34:40.164Z,35.40
2022-09-12T05:35:40.135Z,38.70
2022-09-12T05:36:40.065Z,36.50
2022-09-12T05:37:40.022Z,36.60
2022-09-12T05:38:39.974Z,38.50
2022-09-12T05:39:39.966Z,34.90
2022-09-12T05:40:39.884Z,34.80
2022-09-12T05:41:39.841Z,36.90
2022-09-12T05:42:39.811Z,35.60
2022-09-12T05:43:39.750Z,39.60
2022-09-12T05:44:39.711Z,37.50
2022-09-12T05:45:39.693Z,36.40
2022-09-12T05:46:39.614Z,41.70
2022-09-12T05:47:39.572Z,39.10
2022-09-12T05:48:39.521Z,34.20
2022-09-12T05:49:39.480Z,39.60
2022-09-12T05:50:39.433Z,38.20
2022-09-12T05:51:39.410Z,39.00
2022-09-12T05:52:39.348Z,37.30
2022-09-12T05:53:39.304Z,37.40
2022-09-12T05:54:39.258Z,39.20
2022-09-12T05:55:39.213Z,39.60
2022-09-12T05:56:39.267Z,35.70
2022-09-12T05:58:39.078Z,43.20
2022-09-12T05:59:39.031Z,40.30
2022-09-12T06:00:38.986Z,38.50
2022-09-12T06:01:38.968Z,40.20
2022-09-12T06:02:38.910Z,41.00
2022-09-12T06:03:38.851Z,41.70
2022-09-12T06:04:38.807Z,36.40
2022-09-12T06:05:38.763Z,41.20
2022-09-12T06:06:38.717Z,36.90
2022-09-12T06:07:38.690Z,40.60
2022-09-12T06:08:38.627Z,40.20
2022-09-12T06:09:38.578Z,40.20
2022-09-12T06:10:38.536Z,37.30
2022-09-12T06:11:38.495Z,41.30
2022-09-12T06:12:38.448Z,40.70
2022-09-12T06:14:21.785Z,38.20
2022-09-12T06:15:21.738Z,41.90
2022-09-12T06:16:21.766Z,41.60
2022-09-12T06:17:21.651Z,39.70
2022-09-12T06:18:21.609Z,42.30
2022-09-12T06:19:21.577Z,39.80
2022-09-12T06:20:21.715Z,40.30
2022-09-12T06:21:21.471Z,39.30
2022-09-12T06:22:21.426Z,38.20
2022-09-12T06:23:21.403Z,36.40
2022-09-12T06:24:21.336Z,37.80
2022-09-12T06:25:21.294Z,36.00
2022-09-12T06:26:21.246Z,37.60
2022-09-12T06:27:21.206Z,36.70
2022-09-12T06:28:21.158Z,42.80
2022-09-12T06:29:21.113Z,38.30
2022-09-12T06:30:25.221Z,33.40
2022-09-12T06:31:21.027Z,35.40
2022-09-12T06:32:20.979Z,36.60
2022-09-12T06:33:20.934Z,39.00
2022-09-12T06:34:20.895Z,38.80
2022-09-12T06:35:20.847Z,37.50
2022-09-12T06:36:20.800Z,39.50
2022-09-12T06:37:20.765Z,38.30
2022-09-12T06:38:20.712Z,34.80
2022-09-12T06:39:20.685Z,38.50
2022-09-12T06:40:20.652Z,33.60
2022-09-12T06:41:20.579Z,36.90
2022-09-12T06:42:20.535Z,37.00
2022-09-12T06:43:20.493Z,33.20
2022-09-12T06:44:20.445Z,37.10
2022-09-12T06:45:20.406Z,38.10
2022-09-12T06:46:20.425Z,32.70
2022-09-12T06:47:20.315Z,32.80
2022-09-12T06:48:20.269Z,37.60
2022-09-12T06:49:20.228Z,30.80
2022-09-12T06:50:20.180Z,31.30
2022-09-12T06:51:20.139Z,36.00
2022-09-12T06:52:20.092Z,31.70
2022-09-12T06:53:20.051Z,36.30
2022-09-12T06:54:20.015Z,31.30
2022-09-12T06:55:23.507Z,32.40
2022-09-12T06:56:19.918Z,33.00
2022-09-12T06:57:19.875Z,31.30
2022-09-12T06:58:19.827Z,34.30
2022-09-12T06:59:19.784Z,31.90
2022-09-12T07:00:19.739Z,29.90
2022-09-12T07:01:19.756Z,28.50
2022-09-12T07:02:19.697Z,29.90
2022-09-12T07:03:19.608Z,28.60
2022-09-12T07:04:19.563Z,34.40
2022-09-12T07:05:19.522Z,27.40
2022-09-12T07:06:19.478Z,27.40
2022-09-12T07:07:19.433Z,28.00
2022-09-12T07:08:19.389Z,26.20
2022-09-12T07:09:19.343Z,30.10
2022-09-12T07:10:22.307Z,25.90
2022-09-12T07:11:19.274Z,27.90
2022-09-12T07:12:19.214Z,28.30
2022-09-12T07:13:19.167Z,27.90
2022-09-12T07:14:19.123Z,26.60
2022-09-12T07:15:19.080Z,28.50
2022-09-12T07:16:20.070Z,29.60
2022-09-12T07:17:18.993Z,27.50
2022-09-12T07:18:18.949Z,26.10
2022-09-12T07:19:18.906Z,32.30
2022-09-12T07:20:18.864Z,26.80
2022-09-12T07:21:18.821Z,29.10
2022-09-12T07:22:18.774Z,25.20
2022-09-12T07:23:18.732Z,28.50
2022-09-12T07:24:18.686Z,24.80
2022-09-12T07:25:18.641Z,29.30
2022-09-12T07:26:18.602Z,28.80
2022-09-12T07:27:18.574Z,25.20
2022-09-12T07:28:18.511Z,22.10
2022-09-12T07:29:36.622Z,27.60
2022-09-12T07:30:18.423Z,24.00
2022-09-12T07:31:18.391Z,23.90
2022-09-12T07:32:18.337Z,28.40
2022-09-12T07:33:18.294Z,26.90
2022-09-12T07:34:18.248Z,28.00
2022-09-12T07:35:18.208Z,24.30
2022-09-12T07:36:18.164Z,27.10
2022-09-12T07:37:18.120Z,28.10
2022-09-12T07:38:18.074Z,28.30
2022-09-12T07:39:18.032Z,27.00
2022-09-12T07:40:18.108Z,24.10
2022-09-12T07:41:17.945Z,26.10
2022-09-12T07:42:17.902Z,25.40
2022-09-12T07:43:17.876Z,25.60
2022-09-12T07:44:17.814Z,23.00
2022-09-12T07:45:17.772Z,23.40
2022-09-12T07:46:17.747Z,23.90
2022-09-12T07:47:17.686Z,24.10
2022-09-12T07:48:17.643Z,24.00
2022-09-12T07:49:17.598Z,23.80
2022-09-12T07:50:17.555Z,26.80
2022-09-12T07:51:17.511Z,23.40
2022-09-12T07:52:17.470Z,28.50
2022-09-12T07:53:17.426Z,23.40
2022-09-12T07:54:17.380Z,21.10
2022-09-12T07:55:17.339Z,23.50
2022-09-12T07:56:17.295Z,22.90
2022-09-12T07:57:17.254Z,21.80
2022-09-12T07:58:17.210Z,24.70
2022-09-12T07:59:35.335Z,21.30
2022-09-12T08:00:17.133Z,23.20
2022-09-12T08:01:17.152Z,22.80
2022-09-12T08:02:17.843Z,22.60
2022-09-12T08:03:16.993Z,22.60
2022-09-12T08:04:16.948Z,20.60
2022-09-12T08:05:16.907Z,22.10
2022-09-12T08:06:16.863Z,22.20
2022-09-12T08:07:16.822Z,21.60
2022-09-12T08:08:16.777Z,22.80
2022-09-12T08:18:38.575Z,23.50
2022-09-12T08:19:38.514Z,17.40
2022-09-12T08:20:38.469Z,18.40
2022-09-12T08:21:38.429Z,19.50
2022-09-12T08:22:38.381Z,19.90
2022-09-12T08:23:38.341Z,18.20
2022-09-12T08:24:38.296Z,18.30
2022-09-12T08:25:38.251Z,18.30
2022-09-12T08:26:38.207Z,17.70
2022-09-12T08:27:38.162Z,17.20
2022-09-12T08:28:38.116Z,19.50
2022-09-12T08:29:38.078Z,16.90
2022-09-12T08:30:38.097Z,16.00
2022-09-12T08:31:37.987Z,17.70
2022-09-12T08:32:37.941Z,13.10
2022-09-12T08:33:37.902Z,12.90
2022-09-12T08:34:37.871Z,14.50
2022-09-12T08:35:37.812Z,12.10
2022-09-12T08:36:37.766Z,12.10
2022-09-12T08:37:37.726Z,14.00
2022-09-12T08:38:37.682Z,12.00
2022-09-12T08:39:37.692Z,12.00
2022-09-12T08:40:37.589Z,11.50
2022-09-12T08:41:37.548Z,10.20
2022-09-12T08:42:37.503Z,10.30
2022-09-12T08:43:37.462Z,9.80
2022-09-12T08:44:37.417Z,11.60
2022-09-12T08:45:37.405Z,11.30
2022-09-12T08:46:37.327Z,10.30
2022-09-12T08:47:37.283Z,10.50
2022-09-12T08:48:37.238Z,10.20
2022-09-12T08:49:37.196Z,9.50
2022-09-12T08:50:37.170Z,10.80
2022-09-12T08:51:37.109Z,11.10
2022-09-12T08:52:37.061Z,9.60
2022-09-12T08:53:37.019Z,11.80
2022-09-12T08:54:36.982Z,10.40
2022-09-12T08:55:36.943Z,10.50
2022-09-12T08:56:36.890Z,9.90
2022-09-12T08:57:36.847Z,11.30
2022-09-12T08:58:36.798Z,11.80
2022-09-12T08:59:36.756Z,9.70
2022-09-12T09:00:36.711Z,9.90
2022-09-12T09:01:36.748Z,11.40
2022-09-12T09:02:36.687Z,9.50
2022-09-12T09:03:36.582Z,10.20
2022-09-12T09:04:36.540Z,10.20
2022-09-12T09:05:36.496Z,9.70
2022-09-12T09:06:36.470Z,9.70
2022-09-12T09:07:36.407Z,9.80
2022-09-12T09:08:36.362Z,10.10
2022-09-12T09:09:36.320Z,9.20
2022-09-12T09:10:36.275Z,8.90
2022-09-12T09:11:36.233Z,9.50
2022-09-12T09:12:36.187Z,9.70
2022-09-12T09:13:36.145Z,10.50
2022-09-12T09:14:36.102Z,12.30
2022-09-12T09:15:36.084Z,8.90
2022-09-12T09:16:36.014Z,9.30
2022-09-12T09:17:35.972Z,8.70
2022-09-12T09:18:35.929Z,8.90
2022-09-12T09:19:35.885Z,9.80
2022-09-12T09:20:35.839Z,9.20
2022-09-12T09:21:35.798Z,7.40
2022-09-12T09:22:36.179Z,9.70
2022-09-12T09:23:35.849Z,10.70
2022-09-12T09:24:35.668Z,9.70
2022-09-12T09:27:01.263Z,8.00
2022-09-12T09:28:01.225Z,9.40
2022-09-12T09:29:01.175Z,8.30
2022-09-12T09:30:01.135Z,11.40
2022-09-12T09:31:01.173Z,8.10
2022-09-12T09:32:01.049Z,8.50
2022-09-12T09:33:01.004Z,7.80
2022-09-12T09:34:00.960Z,7.60
2022-09-12T09:35:00.918Z,7.60
2022-09-12T09:36:00.881Z,8.00
2022-09-12T09:37:00.831Z,7.90
2022-09-12T11:54:28.408Z,2.80
2022-09-12T11:56:56.788Z,3.80
2022-09-12T12:03:21.298Z,2.80
2022-09-12T12:04:21.202Z,3.40
2022-09-12T12:05:24.993Z,2.30
2022-09-12T12:09:17.764Z,2.70
2022-09-12T12:10:17.740Z,2.50
2022-09-12T12:11:17.682Z,2.60
2022-09-12T12:12:17.640Z,4.40
2022-09-12T12:13:17.597Z,2.60
2022-09-12T12:14:17.565Z,2.60
2022-09-12T12:15:17.520Z,2.70
2022-09-12T12:16:17.520Z,3.40
2022-09-12T12:17:17.437Z,2.70
2022-09-12T12:18:17.400Z,2.70
2022-09-12T12:19:17.355Z,2.70
2022-09-12T12:20:17.319Z,2.80
2022-09-12T12:21:17.289Z,2.90
2022-09-12T12:22:17.236Z,2.90
2022-09-12T12:23:17.196Z,2.50
2022-09-12T12:24:17.158Z,2.60
2022-09-12T12:25:21.319Z,2.80
2022-09-12T12:26:17.103Z,2.90
2022-09-12T12:27:17.050Z,2.90
2022-09-12T12:28:16.993Z,2.70
2022-09-12T12:29:16.955Z,3.00
2022-09-12T12:30:16.916Z,3.00
2022-09-12T12:31:16.932Z,3.10
2022-09-12T12:32:16.840Z,2.50
2022-09-12T12:33:16.802Z,2.90
2022-09-12T12:34:16.784Z,2.80
2022-09-12T12:35:16.720Z,2.80
2022-09-12T12:36:16.674Z,3.10
2022-09-12T12:37:16.635Z,2.60
2022-09-12T12:38:16.602Z,3.10
2022-09-12T12:39:16.558Z,2.50
2022-09-12T12:40:16.595Z,2.50
2022-09-12T12:41:16.476Z,3.10
2022-09-12T12:42:19.533Z,2.90
2022-09-12T12:43:16.406Z,2.80
2022-09-12T12:44:16.358Z,2.50
2022-09-12T12:45:16.318Z,2.90
2022-09-12T12:46:16.352Z,2.70
2022-09-12T12:47:16.237Z,2.80
2022-09-12T12:48:16.201Z,2.50
2022-09-12T12:49:16.159Z,3.30
2022-09-12T12:50:16.118Z,2.80
2022-09-12T12:51:16.080Z,2.50
2022-09-12T12:52:16.039Z,2.60
2022-09-12T12:53:15.999Z,2.50
2022-09-12T12:54:15.959Z,2.70
2022-09-12T12:55:15.919Z,3.50
2022-09-12T12:56:15.886Z,4.40
2022-09-12T12:57:15.841Z,3.00
2022-09-12T12:58:16.025Z,3.30
2022-09-12T12:59:15.760Z,2.80
2022-09-12T13:00:15.723Z,3.10
2022-09-12T13:01:15.765Z,2.70
2022-09-12T13:02:15.657Z,3.20
2022-09-12T13:03:15.598Z,2.80
2022-09-12T13:04:15.560Z,2.90
2022-09-12T13:05:15.522Z,2.60
2022-09-12T13:06:15.482Z,2.80
2022-09-12T13:07:15.441Z,4.50
2022-09-12T13:08:15.415Z,2.60
2022-09-12T13:09:15.358Z,3.10
2022-09-12T13:10:15.321Z,2.80
2022-09-12T13:11:15.278Z,2.80
2022-09-12T13:12:15.241Z,2.60
2022-09-12T13:13:15.198Z,2.70
2022-09-12T13:14:15.179Z,2.60
2022-09-12T13:15:15.115Z,2.60
2022-09-12T13:16:15.124Z,2.60
2022-09-12T13:17:15.035Z,2.30
2022-09-12T13:18:14.993Z,2.40
2022-09-12T13:19:18.415Z,2.60
2022-09-12T13:20:28.018Z,2.60
2022-09-12T13:21:14.874Z,2.60
2022-09-12T13:22:14.832Z,2.60
2022-09-12T13:23:14.791Z,3.00
2022-09-12T13:24:14.750Z,2.50
2022-09-12T13:25:14.710Z,2.40
2022-09-12T13:26:14.674Z,2.90
2022-09-12T13:27:14.629Z,3.10
2022-09-12T13:28:14.589Z,2.30
2022-09-12T13:29:14.547Z,2.50
2022-09-12T13:30:14.534Z,2.20
2022-09-12T13:31:14.542Z,3.30
2022-09-12T13:32:14.426Z,2.70
2022-09-12T13:33:14.383Z,2.60
2022-09-12T13:34:14.343Z,2.40
2022-09-12T13:35:14.302Z,2.70
2022-09-12T13:36:14.263Z,2.30
2022-09-12T13:37:14.226Z,2.80
2022-09-12T13:38:14.183Z,2.60
2022-09-12T13:39:14.140Z,3.00
2022-09-12T13:40:14.183Z,2.80
2022-09-12T13:41:14.056Z,3.30
2022-09-12T13:42:14.021Z,2.60
2022-09-12T13:43:13.976Z,2.80
2022-09-12T13:44:13.949Z,3.60
2022-09-12T13:45:13.896Z,2.50
2022-09-12T13:46:13.958Z,2.60
2022-09-12T13:47:13.812Z,2.60
2022-09-12T13:48:13.780Z,2.60
2022-09-12T13:49:13.732Z,2.50
2022-09-12T13:50:13.691Z,2.60
2022-09-12T13:51:13.651Z,2.80
2022-09-12T13:52:13.611Z,2.90
2022-09-12T13:53:13.572Z,2.80
2022-09-12T13:54:13.527Z,3.30
2022-09-12T13:55:13.487Z,3.10
2022-09-12T13:56:13.445Z,2.60
2022-09-12T13:57:13.403Z,2.50
2022-09-12T13:58:13.366Z,2.30
2022-09-12T13:59:13.322Z,2.90
2022-09-12T14:00:13.282Z,2.60
2022-09-12T14:01:13.270Z,2.50
2022-09-12T14:02:13.246Z,2.60
2022-09-12T14:03:13.158Z,2.90
2022-09-12T14:04:13.129Z,2.50
2022-09-12T14:05:13.076Z,2.80
2022-09-12T14:06:13.035Z,2.70
2022-09-12T14:07:12.995Z,2.80
2022-09-12T14:08:12.958Z,2.70
2022-09-12T14:09:12.915Z,2.80
2022-09-12T14:10:12.876Z,2.80
2022-09-12T14:11:12.833Z,4.60
2022-09-12T14:12:12.791Z,3.00
2022-09-12T14:13:12.751Z,2.90
2022-09-12T14:14:12.711Z,2.80
2022-09-12T14:15:12.666Z,2.80
2022-09-12T14:16:12.700Z,2.70
2022-09-12T14:17:16.173Z,3.30
2022-09-12T14:18:12.563Z,3.00
2022-09-12T14:19:12.505Z,3.90
2022-09-12T14:20:12.463Z,2.60
2022-09-12T14:21:12.423Z,3.00
2022-09-12T14:22:12.385Z,3.20
2022-09-12T14:23:12.340Z,4.00
2022-09-12T14:24:12.300Z,2.80
2022-09-12T14:25:12.258Z,2.90
2022-09-12T14:26:12.221Z,2.90
2022-09-12T14:27:12.178Z,3.10
2022-09-12T14:28:12.135Z,3.30
2022-09-12T14:29:12.093Z,2.90
2022-09-12T14:30:12.055Z,2.90
2022-09-12T14:31:12.038Z,3.10
2022-09-12T14:32:11.986Z,2.90
2022-09-12T14:33:11.934Z,2.80
2022-09-12T14:34:11.908Z,3.10
2022-09-12T14:38:04.056Z,3.00
2022-09-12T14:39:04.017Z,3.70
2022-09-12T14:40:04.131Z,3.50
2022-09-12T14:41:03.934Z,3.10
2022-09-12T14:42:03.891Z,2.60
2022-09-12T14:43:03.851Z,3.00
2022-09-12T14:44:03.809Z,2.80
2022-09-12T14:45:03.772Z,3.10
2022-09-12T14:46:03.777Z,3.70
2022-09-12T14:47:03.689Z,3.80
2022-09-12T14:48:03.649Z,3.00
2022-09-12T14:49:03.605Z,3.00
2022-09-12T14:50:03.581Z,3.20
2022-09-12T14:51:03.526Z,4.00
2022-09-12T14:52:03.484Z,3.50
2022-09-12T14:53:03.461Z,2.90
2022-09-12T14:54:03.401Z,2.80
2022-09-12T14:55:03.363Z,2.90
2022-09-12T14:56:03.316Z,3.30
2022-09-12T14:57:03.277Z,2.80
2022-09-12T14:58:03.234Z,2.90
2022-09-12T14:59:03.196Z,3.40
2022-09-12T15:00:03.153Z,3.00
2022-09-12T15:01:03.120Z,3.10
2022-09-12T15:02:03.069Z,2.80
2022-09-12T15:03:03.031Z,2.80
2022-09-12T15:04:03.133Z,3.10
2022-09-12T15:05:02.953Z,3.00
2022-09-12T15:06:02.925Z,3.20
2022-09-12T15:07:02.869Z,3.10
2022-09-12T15:08:02.838Z,2.80
2022-09-12T15:09:02.787Z,2.80
2022-09-12T15:10:02.743Z,3.00
2022-09-12T15:11:02.710Z,3.00
2022-09-12T15:12:02.663Z,4.70
2022-09-12T15:13:02.624Z,3.70
2022-09-12T15:14:02.576Z,2.90
2022-09-12T15:15:02.538Z,3.40
2022-09-12T15:16:02.520Z,2.80
2022-09-12T15:17:02.457Z,3.00
2022-09-12T15:18:06.375Z,3.10
2022-09-12T15:19:02.374Z,3.50
2022-09-12T15:20:02.389Z,2.90
2022-09-12T15:21:02.291Z,2.90
2022-09-12T15:22:02.268Z,3.00
2022-09-12T15:23:02.210Z,3.60
2022-09-12T15:24:02.168Z,2.90
2022-09-12T15:25:02.131Z,2.80
2022-09-12T15:26:02.086Z,3.50
2022-09-12T15:27:02.047Z,3.50
2022-09-12T15:28:02.011Z,3.00
2022-09-12T15:29:01.963Z,2.90
2022-09-12T15:30:01.922Z,3.10
2022-09-12T15:31:01.924Z,2.90
2022-09-12T15:32:01.839Z,3.80
2022-09-12T15:33:01.799Z,2.80
2022-09-12T15:34:01.757Z,3.30
2022-09-12T15:35:01.716Z,3.10
2022-09-12T15:36:01.673Z,3.10
2022-09-12T15:37:01.635Z,2.90
2022-09-12T15:38:01.696Z,3.00
2022-09-12T15:39:01.561Z,3.00
2022-09-12T15:40:01.655Z,3.00
2022-09-12T15:41:01.470Z,3.40
2022-09-12T15:42:01.427Z,3.10
2022-09-12T15:43:01.385Z,3.00
2022-09-12T15:44:01.345Z,3.20
2022-09-12T15:45:02.821Z,2.90
2022-09-12T15:46:01.306Z,2.90
2022-09-12T15:47:01.221Z,3.10
2022-09-12T15:48:01.181Z,3.10
2022-09-12T15:49:01.139Z,3.50